Mc Pherson, Kansas
Current Conditions -  °F | °C
As of 3:52 AM on Friday 24 Oct 2014 (Local Time) from KHUT Reporting Station
Haze Haze  
Wind Chill: 14°   Ceiling: Unl
Heat Index: 14°   Visibility: 4mi
Dew Point: 13°   Wind: 6mph
Humidity: 90%   Direction: 170°S
Pressure: 30.06"   Gusts: NA
Location:  38.4089°N, 97.6556°W
Report Text: KHUT 240852Z AUTO 17005KT 4SM BR CLR 14/13 A3006 RMK AO2 SLP161 T01440128 56004
Loading
Personal Weather Stations






























Interactive Weather Map
Tropical Storm Tracking
New forecast layout! Learn more

10-Day Weather Forecast

Advertisements
Track Severe Weather on mobile